< < Back
Terminal Aerodrome Forecast


Current Version              Previous Versions:   1  2  3  4  5  6  7  8  9  

Terminal Aerodrome Forecast

495
FTUS42 KCHS 171700
TAFSAV
TAF
KSAV 171739Z 1718/1818 06011KT P6SM SCT030 BKN050
     FM180800 03012KT P6SM SCT010 BKN025
     FM181500 05015G22KT 6SM BR VCSH SCT007 OVC015=

Latest METAR

068
SAUS80 KWBC 181000
MTRSAV
METAR KSAV 180953Z 07010G16KT 10SM FEW008 OVC048 17/12 A3023 RMK AO2
SLP236 T01670122


USA.gov is the U.S. government's official web portal to all federal, state and local government web resources and services.